Time;durP1;ratioP1;P1;durP2;ratioP2;P2;SDS_P1;SDS_P2;PMS_P1;PMS_P2;Temp;Humidity;BMP_temperature;BMP_pressure;BME280_temperature;BME280_humidity;BME280_pressure;Samples;Min_cycle;Max_cycle;Signal;HPM_P1;HPM_P2
2024/01/26 00:00:17;;;;;;;;;7.00;7.00;;;;;12.08;78.85;102596.16;2033682;27;2730490;-77
2024/01/26 00:01:28;;;;;;;;;5.00;5.00;;;;;12.07;78.84;102605.84;2035032;27;2739893;-77
2024/01/26 00:02:39;;;;;;;;;6.00;6.00;;;;;12.07;78.65;102599.69;2051072;27;3450273;-77
2024/01/26 00:03:51;;;;;;;;;6.33;6.33;;;;;12.06;78.59;102601.47;2039870;27;2745067;-77
2024/01/26 00:05:04;;;;;;;;;7.83;7.83;;;;;12.07;78.63;102589.16;2061497;27;2735174;-77
2024/01/26 00:06:17;;;;;;;;;7.67;7.67;;;;;12.07;78.62;102583.88;2050908;27;2736740;-77
2024/01/26 00:07:31;;;;;;;;;7.67;7.67;;;;;12.07;78.76;102584.78;2060664;27;2728390;-77
2024/01/26 00:08:44;;;;;;;;;5.17;5.17;;;;;12.08;78.69;102591.78;2038765;27;2732554;-77
2024/01/26 00:09:57;;;;;;;;;7.50;7.50;;;;;12.07;78.59;102589.16;2038738;27;2739868;-77
2024/01/26 00:11:15;;;;;;;;;7.67;7.67;;;;;12.09;78.52;102596.16;2033091;27;2739275;-77
2024/01/26 00:12:28;;;;;;;;;7.00;7.00;;;;;12.07;78.65;102597.06;2062195;27;2739635;-77
2024/01/26 00:13:38;;;;;;;;;9.00;9.00;;;;;12.06;78.53;102590.91;2010610;27;3472167;-77
2024/01/26 00:14:49;;;;;;;;;6.00;6.00;;;;;12.07;78.66;102589.16;2059542;27;2746122;-77
2024/01/26 00:16:01;;;;;;;;;6.75;6.75;;;;;12.07;78.42;102594.44;2067928;27;2744011;-77
2024/01/26 00:17:11;;;;;;;;;7.33;7.33;;;;;12.07;78.63;102584.78;2044036;27;2742345;-77
2024/01/26 00:18:22;;;;;;;;;6.67;6.67;;;;;12.09;78.65;102590.00;2060646;27;3457592;-77
2024/01/26 00:19:33;;;;;;;;;5.67;5.67;;;;;12.10;78.75;102582.09;2063133;27;2737785;-77
2024/01/26 00:20:47;;;;;;;;;8.67;8.67;;;;;12.10;78.41;102578.59;2033325;27;2729455;-77
2024/01/26 00:22:00;;;;;;;;;7.00;7.00;;;;;12.10;78.83;102594.41;2037852;27;2730532;-77
2024/01/26 00:23:13;;;;;;;;;7.33;7.17;;;;;12.10;78.59;102595.25;2045220;27;2739863;-77
2024/01/26 00:24:26;;;;;;;;;6.33;6.33;;;;;12.09;78.86;102598.81;2045309;27;2746115;-77
2024/01/26 00:25:39;;;;;;;;;6.17;6.17;;;;;12.10;78.88;102597.91;2045175;27;2746571;-77
2024/01/26 00:26:52;;;;;;;;;8.50;8.50;;;;;12.12;78.97;102596.13;2036859;27;2737757;-77
2024/01/26 00:28:04;;;;;;;;;7.00;7.00;;;;;12.12;79.01;102587.34;2012370;27;2745097;-77
2024/01/26 00:29:14;;;;;;;;;8.00;8.00;;;;;12.13;78.92;102584.72;2038516;27;2750370;-77
2024/01/26 00:30:25;;;;;;;;;6.67;6.67;;;;;12.14;78.72;102591.75;2046763;27;2737880;-77
2024/01/26 00:31:36;;;;;;;;;7.67;7.67;;;;;12.15;78.63;102590.84;2049808;27;3450252;-77
2024/01/26 00:32:47;;;;;;;;;7.33;7.33;;;;;12.15;78.64;102584.69;2047502;27;2742393;-77
2024/01/26 00:33:58;;;;;;;;;6.33;6.33;;;;;12.17;78.94;102584.72;2059058;27;2732549;-77
2024/01/26 00:35:09;;;;;;;;;8.75;8.75;;;;;12.15;78.95;102582.06;2035097;27;1840363;-77
2024/01/26 00:36:20;;;;;;;;;8.33;8.33;;;;;12.17;78.77;102589.97;2041333;27;3455492;-77
2024/01/26 00:37:31;;;;;;;;;8.33;8.33;;;;;12.18;78.74;102581.16;2060422;27;2746097;-77
2024/01/26 00:38:42;;;;;;;;;8.33;8.33;;;;;12.17;78.73;102580.31;2037197;27;2737964;-77
2024/01/26 00:39:53;;;;;;;;;8.00;8.00;;;;;12.19;78.97;102582.94;2066692;27;2737805;-77
2024/01/26 00:41:03;;;;;;;;;9.33;9.33;;;;;12.20;78.92;102564.44;2017092;27;3472171;-77
2024/01/26 00:42:14;;;;;;;;;7.00;7.00;;;;;12.20;78.56;102561.81;2054818;27;2735726;-77
2024/01/26 00:43:25;;;;;;;;;9.00;9.00;;;;;12.21;78.56;102555.66;2058996;27;3465860;-77
2024/01/26 00:44:37;;;;;;;;;10.00;9.00;;;;;12.21;78.85;102558.28;2057555;27;2766951;-77
2024/01/26 00:45:49;;;;;;;;;8.00;8.00;;;;;12.23;78.49;102563.53;2067951;27;2740850;-77
2024/01/26 00:46:59;;;;;;;;;8.67;8.67;;;;;12.23;79.17;102574.09;2019551;27;2754407;-77
2024/01/26 00:48:11;;;;;;;;;9.00;9.00;;;;;12.22;78.86;102572.34;2042718;27;3462733;-77
2024/01/26 00:49:21;;;;;;;;;9.33;9.33;;;;;12.22;78.92;102572.34;2055107;27;3477388;-77
2024/01/26 00:50:32;;;;;;;;;9.67;9.67;;;;;12.23;78.65;102574.97;2058047;27;3485668;-77
2024/01/26 00:51:43;;;;;;;;;8.00;8.00;;;;;12.24;78.97;102589.03;2057798;27;3457528;-77
2024/01/26 00:52:54;;;;;;;;;10.67;10.67;;;;;12.25;78.67;102572.31;2049116;27;3508576;-77
2024/01/26 00:54:05;;;;;;;;;7.00;7.00;;;;;12.26;78.44;102580.22;2048329;27;2736724;-77
2024/01/26 00:55:17;;;;;;;;;9.50;9.50;;;;;12.26;78.69;102574.06;2072840;27;1837859;-77
2024/01/26 00:56:28;;;;;;;;;10.00;10.00;;;;;12.26;78.59;102568.78;2040070;27;3498151;-77
2024/01/26 00:57:39;;;;;;;;;9.00;9.00;;;;;12.27;78.59;102568.75;2072635;27;1822234;-77
2024/01/26 00:58:49;;;;;;;;;8.67;8.67;;;;;12.28;78.62;102572.28;2005407;27;3466931;-77
2024/01/26 01:00:00;;;;;;;;;6.00;6.00;;;;;12.28;78.65;102561.72;2044073;27;2731512;-77
2024/01/26 01:01:11;;;;;;;;;7.33;7.33;;;;;12.28;78.62;102559.09;2059694;27;3453333;-77
2024/01/26 01:02:23;;;;;;;;;8.25;8.00;;;;;12.30;78.86;102559.94;2068427;27;2738787;-77
2024/01/26 01:03:35;;;;;;;;;9.00;9.00;;;;;12.30;78.82;102552.03;2032367;27;2743016;-77
2024/01/26 01:04:45;;;;;;;;;10.00;9.00;;;;;12.31;78.65;102553.78;2033820;27;2759667;-77
2024/01/26 01:05:56;;;;;;;;;8.33;7.67;;;;;12.32;78.72;102549.41;2076304;27;1825320;-77
2024/01/26 01:07:09;;;;;;;;;7.67;7.67;;;;;12.32;78.52;102550.25;2046524;27;2731519;-77
2024/01/26 01:08:20;;;;;;;;;6.00;6.00;;;;;12.33;78.80;102556.41;2026047;27;2746115;-77
2024/01/26 01:09:31;;;;;;;;;10.33;10.33;;;;;12.34;78.83;102553.78;2071460;27;1840910;-77
2024/01/26 01:10:43;;;;;;;;;9.25;9.25;;;;;12.34;78.71;102551.13;2017483;27;1835711;-77
2024/01/26 01:11:53;;;;;;;;;8.67;8.67;;;;;12.35;78.85;102547.59;2026589;27;3451302;-77
2024/01/26 01:13:04;;;;;;;;;7.00;7.00;;;;;12.36;78.75;102551.09;2046478;27;2744019;-77
2024/01/26 01:14:18;;;;;;;;;8.00;8.00;;;;;12.37;79.01;102537.03;2052831;27;2737793;-77
2024/01/26 01:15:29;;;;;;;;;8.67;8.67;;;;;12.37;78.73;102539.69;2032722;27;3443954;-77
2024/01/26 01:16:40;;;;;;;;;9.50;8.50;;;;;12.38;78.75;102538.78;2052469;27;1841960;-77
2024/01/26 01:17:51;;;;;;;;;8.00;8.00;;;;;12.37;78.62;102532.63;2041418;27;3455528;-77
2024/01/26 01:19:02;;;;;;;;;8.00;8.00;;;;;12.38;78.39;102541.41;2060584;27;2732551;-77
2024/01/26 01:20:13;;;;;;;;;9.00;9.00;;;;;12.38;78.58;102526.47;2018454;27;2743004;-77
2024/01/26 01:21:24;;;;;;;;;8.00;8.00;;;;;12.38;78.59;102530.84;2045529;27;2739856;-77
2024/01/26 01:22:37;;;;;;;;;9.50;9.50;;;;;12.38;78.72;102537.00;2059023;27;2765902;-77
2024/01/26 01:23:48;;;;;;;;;11.25;11.25;;;;;12.39;78.63;102548.44;2056062;27;1839865;-77
2024/01/26 01:24:58;;;;;;;;;9.50;9.50;;;;;12.41;78.50;102551.03;2032039;27;2763142;-77
2024/01/26 01:26:09;;;;;;;;;10.00;10.00;;;;;12.42;78.42;102552.81;2063878;27;1842071;-77
2024/01/26 01:27:20;;;;;;;;;10.50;10.50;;;;;12.42;78.64;102553.66;2008555;27;2775216;-77
2024/01/26 01:28:31;;;;;;;;;9.50;9.50;;;;;12.42;78.74;102534.34;2018780;27;2766943;-77
2024/01/26 01:29:42;;;;;;;;;9.00;9.00;;;;;12.43;79.08;102536.06;2053740;27;1819083;-77
2024/01/26 01:30:52;;;;;;;;;12.00;12.00;;;;;12.41;78.72;102530.84;2010378;27;2789826;-77
2024/01/26 01:32:04;;;;;;;;;5.33;5.33;;;;;12.42;78.45;102532.56;2045465;27;2739921;-77
2024/01/26 01:33:14;;;;;;;;;7.33;7.33;;;;;12.42;78.92;102529.06;2021604;27;2744475;-77
2024/01/26 01:34:25;;;;;;;;;12.00;11.00;;;;;12.43;78.60;102533.44;2058905;27;2791946;-77
2024/01/26 01:35:37;;;;;;;;;11.75;11.75;;;;;12.43;78.55;102533.44;2060917;27;1838824;-77
2024/01/26 01:36:47;;;;;;;;;12.50;11.00;;;;;12.43;78.50;102536.06;2023863;27;2789818;-77
2024/01/26 01:37:58;;;;;;;;;9.00;9.00;;;;;12.43;78.59;102533.44;2042991;27;1839928;-77
2024/01/26 01:39:10;;;;;;;;;7.50;7.50;;;;;12.42;78.88;102548.38;2032168;27;1817517;-77
2024/01/26 01:40:20;;;;;;;;;9.00;9.00;;;;;12.42;78.57;102534.34;2041860;27;2755500;-77
2024/01/26 01:41:31;;;;;;;;;11.00;11.00;;;;;12.41;78.59;102535.22;2073608;27;1846271;-77
2024/01/26 01:42:43;;;;;;;;;12.00;12.00;;;;;12.43;78.65;102541.34;2013801;27;2779442;-77
2024/01/26 01:43:54;;;;;;;;;8.00;8.00;;;;;12.42;78.57;102539.63;2057446;27;2737796;-77
2024/01/26 01:45:13;;;;;;;;;7.50;7.50;;;;;12.43;78.59;102541.34;2042633;27;2733618;-77
2024/01/26 01:46:23;;;;;;;;;7.00;7.00;;;;;12.44;78.70;102529.94;2042039;27;2734675;-77
2024/01/26 01:47:34;;;;;;;;;9.00;8.00;;;;;12.44;78.79;102532.56;2052506;27;3464878;-77
2024/01/26 01:48:45;;;;;;;;;11.00;10.33;;;;;12.44;79.15;102538.72;2056785;27;1825301;-77
2024/01/26 01:49:56;;;;;;;;;9.50;9.50;;;;;12.45;78.86;102545.72;2024873;27;1842431;-77
2024/01/26 01:51:07;;;;;;;;;12.50;10.00;;;;;12.46;78.68;102543.97;2034632;27;2783597;-77
2024/01/26 01:52:20;;;;;;;;;10.20;9.60;;;;;12.45;78.61;102535.16;2048586;27;1820093;-77
2024/01/26 01:53:31;;;;;;;;;5.33;5.33;;;;;12.45;78.73;102537.81;2043904;27;2742973;-77
2024/01/26 01:54:42;;;;;;;;;4.33;4.33;;;;;12.47;78.73;102533.38;2048757;27;2739998;-77
2024/01/26 01:55:53;;;;;;;;;7.67;7.67;;;;;12.47;78.79;102536.03;2052886;27;2739836;-77
2024/01/26 01:57:04;;;;;;;;;7.00;7.00;;;;;12.48;78.65;102539.53;2037177;27;2732569;-77
2024/01/26 01:58:15;;;;;;;;;12.00;12.00;;;;;12.48;78.77;102556.25;2031200;27;2788164;-77
2024/01/26 01:59:27;;;;;;;;;10.00;10.00;;;;;12.49;78.69;102555.31;2016689;27;2789878;-77
2024/01/26 02:00:41;;;;;;;;;6.50;6.50;;;;;12.49;78.83;102554.47;2069019;27;2737780;-77
2024/01/26 02:01:54;;;;;;;;;7.67;7.67;;;;;12.49;78.65;102554.47;2069431;27;2734653;-77
2024/01/26 02:03:05;;;;;;;;;10.00;10.00;;;;;12.52;78.79;102561.47;2016427;27;2787775;-77
2024/01/26 02:04:16;;;;;;;;;10.00;9.75;;;;;12.52;78.62;102559.69;2071696;27;1819043;-77
2024/01/26 02:05:26;;;;;;;;;9.00;9.00;;;;;12.54;78.78;102551.78;2008844;27;2746118;-77
2024/01/26 02:06:37;;;;;;;;;11.00;11.00;;;;;12.53;78.38;102544.75;2050037;27;2785648;-77
2024/01/26 02:07:49;;;;;;;;;9.33;8.67;;;;;12.54;78.40;102544.75;2055637;27;3471087;-77
2024/01/26 02:09:03;;;;;;;;;7.67;7.67;;;;;12.54;79.00;102542.13;2075205;27;1824229;-77
2024/01/26 02:10:13;;;;;;;;;10.00;10.00;;;;;12.54;78.85;102541.22;2024381;27;2794021;-77
2024/01/26 02:11:24;;;;;;;;;10.00;9.50;;;;;12.54;78.40;102531.56;2064458;27;2773573;-77
2024/01/26 02:12:36;;;;;;;;;8.75;8.75;;;;;12.55;78.38;102528.00;2071727;27;1820042;-77
2024/01/26 02:13:47;;;;;;;;;7.67;7.67;;;;;12.53;78.59;102519.25;2022911;27;1816956;-77
2024/01/26 02:14:58;;;;;;;;;10.00;10.00;;;;;12.54;78.66;102531.56;2024732;27;3514771;-77
2024/01/26 02:16:09;;;;;;;;;9.00;9.00;;;;;12.55;78.58;102524.50;2066164;27;1835740;-77
2024/01/26 02:17:32;;;;;;;;;7.17;7.17;;;;;12.56;78.59;102521.88;2052195;27;1821159;-77
2024/01/26 02:18:43;;;;;;;;;7.00;7.00;;;;;12.56;78.41;102521.88;2018822;27;2733626;-77
2024/01/26 02:19:54;;;;;;;;;9.00;9.00;;;;;12.56;78.55;102516.59;2061288;27;3459642;-77
2024/01/26 02:21:05;;;;;;;;;10.00;10.00;;;;;12.56;78.57;102506.03;2072789;27;1844039;-77
2024/01/26 02:22:15;;;;;;;;;7.50;7.50;;;;;12.58;78.52;102508.66;2019633;27;2739856;-77
2024/01/26 02:23:26;;;;;;;;;7.33;7.33;;;;;12.56;78.53;102516.59;2060358;27;2733634;-77
2024/01/26 02:24:38;;;;;;;;;8.00;8.00;;;;;12.58;78.37;102513.91;2072868;27;1830116;-77
2024/01/26 02:25:48;;;;;;;;;8.00;8.00;;;;;12.58;78.56;102517.44;2042046;27;2734644;-77
2024/01/26 02:27:00;;;;;;;;;9.00;9.00;;;;;12.58;78.36;102528.00;2073653;27;1821176;-77
2024/01/26 02:28:11;;;;;;;;;8.50;8.50;;;;;12.59;78.33;102526.22;2041346;27;2740922;-77
2024/01/26 02:29:22;;;;;;;;;9.00;9.00;;;;;12.59;78.76;102519.16;2072941;27;1831504;-77
2024/01/26 02:30:35;;;;;;;;;9.00;8.33;;;;;12.61;78.45;102527.06;2011653;27;2741990;-77
2024/01/26 02:31:45;;;;;;;;;8.00;8.00;;;;;12.60;78.62;102518.28;2043338;27;2741955;-77
2024/01/26 02:32:56;;;;;;;;;8.00;8.00;;;;;12.62;78.37;102506.84;2068398;27;2730497;-77
2024/01/26 02:34:11;;;;;;;;;8.50;8.50;;;;;12.62;78.82;102514.78;2055806;27;1829917;-77
2024/01/26 02:35:21;;;;;;;;;10.67;9.00;;;;;12.63;78.59;102516.50;2039307;27;3480492;-77
2024/01/26 02:36:34;;;;;;;;;7.33;7.33;;;;;12.62;78.36;102518.25;2042294;27;2744128;-77
2024/01/26 02:37:44;;;;;;;;;6.00;6.00;;;;;12.63;78.34;102517.38;2031536;27;3462213;-77
2024/01/26 02:38:55;;;;;;;;;9.00;9.00;;;;;12.64;78.39;102518.25;2059337;27;2746123;-77
2024/01/26 02:40:08;;;;;;;;;7.75;7.75;;;;;12.64;78.30;102513.84;2067205;27;2746088;-77
2024/01/26 02:41:19;;;;;;;;;8.67;8.67;;;;;12.63;78.00;102508.59;2040406;27;3461655;-77
2024/01/26 02:42:30;;;;;;;;;7.00;7.00;;;;;12.64;78.44;102510.34;2066227;27;1841954;-77
2024/01/26 02:43:43;;;;;;;;;7.33;7.33;;;;;12.65;78.24;102512.06;2061157;27;2735678;-77
2024/01/26 02:44:56;;;;;;;;;6.50;6.50;;;;;12.64;78.23;102515.63;2035183;27;2737765;-77
2024/01/26 02:46:10;;;;;;;;;7.50;7.50;;;;;12.66;78.10;102511.19;2008625;27;2485632;-77
2024/01/26 02:47:23;;;;;;;;;8.33;8.33;;;;;12.65;78.16;102514.69;2060600;27;2744046;-77
2024/01/26 02:48:34;;;;;;;;;7.75;7.75;;;;;12.66;78.27;102521.75;2028723;27;1812790;-77
2024/01/26 02:49:45;;;;;;;;;7.67;7.67;;;;;12.66;78.21;102521.75;2035939;27;2732635;-77
2024/01/26 02:50:56;;;;;;;;;8.00;8.00;;;;;12.67;78.45;102520.81;2058339;27;2739908;-77
2024/01/26 02:52:07;;;;;;;;;7.33;7.33;;;;;12.67;78.45;102521.72;2050219;27;3447107;-77
2024/01/26 02:53:18;;;;;;;;;10.00;8.33;;;;;12.67;78.10;102510.28;2047002;27;2754558;-77
2024/01/26 02:54:29;;;;;;;;;8.50;8.50;;;;;12.67;77.98;102507.63;2060546;27;2733625;-77
2024/01/26 02:55:40;;;;;;;;;5.33;5.33;;;;;12.69;78.08;102519.06;2041871;27;3458596;-77
2024/01/26 02:56:51;;;;;;;;;8.00;8.00;;;;;12.67;78.35;102516.44;2067944;27;2737777;-77
2024/01/26 02:58:01;;;;;;;;;5.00;5.00;;;;;12.68;77.90;102512.03;2019764;27;2741479;-77
2024/01/26 02:59:12;;;;;;;;;6.33;6.33;;;;;12.69;78.31;102503.25;2074403;27;1823228;-77
2024/01/26 03:00:25;;;;;;;;;7.33;7.33;;;;;12.68;77.81;102507.63;2045331;27;2743441;-77
2024/01/26 03:01:36;;;;;;;;;7.50;7.50;;;;;12.69;78.18;102511.16;2017387;27;2487742;-77
2024/01/26 03:02:47;;;;;;;;;8.00;8.00;;;;;12.68;77.81;102512.91;2069539;27;2728418;-77
2024/01/26 03:03:59;;;;;;;;;7.00;7.00;;;;;12.68;77.96;102507.63;2019773;27;3460009;-77
2024/01/26 03:05:09;;;;;;;;;6.00;6.00;;;;;12.69;77.78;102514.63;2043165;27;2737849;-77
2024/01/26 03:06:20;;;;;;;;;9.00;9.00;;;;;12.69;77.79;102508.50;2059846;27;2504448;-77
2024/01/26 03:07:31;;;;;;;;;8.00;8.00;;;;;12.67;77.78;102499.72;2056844;27;2498231;-77
2024/01/26 03:08:42;;;;;;;;;5.00;4.67;;;;;12.69;77.75;102513.78;2057919;27;3457901;-77
2024/01/26 03:09:53;;;;;;;;;7.33;7.33;;;;;12.69;77.81;102511.16;2059020;27;2738823;-77
2024/01/26 03:11:05;;;;;;;;;8.00;8.00;;;;;12.68;77.85;102502.34;2025222;27;1810768;-77
2024/01/26 03:12:15;;;;;;;;;7.33;7.33;;;;;12.68;77.98;102505.00;2043284;27;2736723;-77
2024/01/26 03:13:26;;;;;;;;;8.67;8.67;;;;;12.70;77.83;102505.84;2067523;27;2730486;-77
2024/01/26 03:14:37;;;;;;;;;8.33;8.33;;;;;12.69;78.12;102509.38;2032488;27;3472130;-77
2024/01/26 03:15:49;;;;;;;;;7.00;7.00;;;;;12.69;77.93;102498.81;2065517;27;2735698;-77
2024/01/26 03:17:00;;;;;;;;;6.67;6.67;;;;;12.70;77.47;102515.53;2019591;27;2740912;-77
2024/01/26 03:18:12;;;;;;;;;7.50;7.50;;;;;12.70;77.58;102510.25;2059076;27;2734695;-77
2024/01/26 03:19:22;;;;;;;;;10.00;10.00;;;;;12.70;77.63;102508.47;2032409;27;3501299;-77
2024/01/26 03:20:33;;;;;;;;;12.00;9.33;;;;;12.70;77.94;102511.13;2057318;27;3490867;-77
2024/01/26 03:21:44;;;;;;;;;6.00;6.00;;;;;12.71;77.53;102512.00;2068334;27;2734639;-77
2024/01/26 03:22:58;;;;;;;;;9.33;9.33;;;;;12.70;77.85;102519.03;2038272;27;2746114;-77
2024/01/26 03:24:11;;;;;;;;;8.17;8.17;;;;;12.70;77.61;102519.03;2044787;27;2740910;-77
2024/01/26 03:25:24;;;;;;;;;7.83;7.83;;;;;12.70;77.94;102515.53;2045297;27;2742970;-77
2024/01/26 03:26:35;;;;;;;;;9.50;9.50;;;;;12.69;77.64;102513.78;2009968;27;2762756;-76
2024/01/26 03:27:46;;;;;;;;;7.00;7.00;;;;;12.71;77.76;102512.00;2049665;27;2736800;-76
2024/01/26 03:28:57;;;;;;;;;8.25;8.25;;;;;12.71;77.58;102512.00;2063332;27;2743982;-76
2024/01/26 03:30:08;;;;;;;;;8.50;8.50;;;;;12.70;77.52;102505.84;2035715;27;2746062;-76
2024/01/26 03:31:19;;;;;;;;;10.00;10.00;;;;;12.70;77.82;102504.97;2010713;27;2777359;-76
2024/01/26 03:32:30;;;;;;;;;6.00;6.00;;;;;12.71;77.74;102501.44;2050619;27;3446042;-76
2024/01/26 03:33:42;;;;;;;;;6.67;6.67;;;;;12.71;77.72;102493.53;2055081;27;2745059;-77
2024/01/26 03:34:53;;;;;;;;;8.00;8.00;;;;;12.72;77.33;102492.63;2055103;27;1828444;-77
2024/01/26 03:36:04;;;;;;;;;6.67;6.67;;;;;12.72;77.55;102492.63;2034144;27;2738426;-77
2024/01/26 03:37:15;;;;;;;;;8.00;8.00;;;;;12.72;77.57;102492.63;2040388;27;3455463;-77
2024/01/26 03:38:25;;;;;;;;;7.33;7.33;;;;;12.71;77.51;102481.22;2053658;27;2735697;-77
2024/01/26 03:39:37;;;;;;;;;7.33;7.33;;;;;12.73;77.38;102497.03;2073106;27;1813788;-77
2024/01/26 03:40:48;;;;;;;;;8.33;8.33;;;;;12.73;77.49;102488.22;2044624;27;1814880;-77
2024/01/26 03:41:59;;;;;;;;;8.00;8.00;;;;;12.73;77.56;102496.13;2042947;27;1841961;-77
2024/01/26 03:43:10;;;;;;;;;9.00;9.00;;;;;12.72;77.09;102492.63;2035443;27;3466894;-77
2024/01/26 03:44:22;;;;;;;;;6.75;6.75;;;;;12.71;77.08;102490.91;2074298;27;1829513;-77
2024/01/26 03:45:32;;;;;;;;;9.00;9.00;;;;;12.71;77.42;102491.78;2042373;27;2741935;-77
2024/01/26 03:46:43;;;;;;;;;7.00;7.00;;;;;12.71;77.64;102485.63;2057959;27;3459619;-77
2024/01/26 03:47:56;;;;;;;;;8.80;8.80;;;;;12.69;76.91;102469.78;2069320;27;2744041;-77
2024/01/26 03:49:08;;;;;;;;;7.00;7.00;;;;;12.70;77.19;102473.31;2043881;27;2746107;-77
2024/01/26 03:50:19;;;;;;;;;5.33;5.33;;;;;12.69;77.20;102474.22;2041798;27;2748235;-77
2024/01/26 03:51:31;;;;;;;;;8.25;7.75;;;;;12.68;77.23;102465.44;2058077;27;1810817;-77
2024/01/26 03:52:41;;;;;;;;;9.00;9.00;;;;;12.68;77.07;102475.09;2042176;27;2752854;-77
2024/01/26 03:53:52;;;;;;;;;6.67;5.67;;;;;12.67;77.06;102473.34;2060799;27;3448129;-76
2024/01/26 03:55:06;;;;;;;;;7.67;7.67;;;;;12.67;77.00;102468.06;2034645;27;3447111;-76
2024/01/26 03:56:17;;;;;;;;;9.33;9.33;;;;;12.68;77.21;102469.81;2036065;27;3474234;-76
2024/01/26 03:57:28;;;;;;;;;7.33;7.33;;;;;12.67;77.35;102465.44;2066032;27;1821133;-76
2024/01/26 03:58:38;;;;;;;;;7.00;7.00;;;;;12.68;77.23;102475.09;2004598;27;2469010;-76
2024/01/26 03:59:49;;;;;;;;;10.33;10.33;;;;;12.67;77.43;102471.59;2067075;27;1837244;-76
2024/01/26 04:01:00;;;;;;;;;5.33;5.33;;;;;12.68;77.28;102480.38;2035220;27;2743048;-76
2024/01/26 04:02:12;;;;;;;;;6.25;6.25;;;;;12.68;77.30;102469.81;2060380;27;2736712;-76
2024/01/26 04:03:25;;;;;;;;;7.33;7.33;;;;;12.68;77.14;102480.38;2044330;27;2731567;-76
2024/01/26 04:04:36;;;;;;;;;6.33;6.33;;;;;12.67;77.03;102474.22;2014445;27;2742056;-78
2024/01/26 04:05:49;;;;;;;;;9.17;8.83;;;;;12.68;77.28;102475.09;2061375;27;2733655;-77
2024/01/26 04:07:00;;;;;;;;;5.67;5.67;;;;;12.68;76.84;102475.09;2011827;27;2737838;-77
2024/01/26 04:08:12;;;;;;;;;7.33;7.33;;;;;12.69;77.01;102482.13;2048221;27;2741943;-77
2024/01/26 04:09:23;;;;;;;;;8.33;8.33;;;;;12.69;77.36;102482.97;2021343;27;2729967;-77
2024/01/26 04:10:33;;;;;;;;;8.00;8.00;;;;;12.70;77.13;102478.59;2039996;27;2741920;-77
2024/01/26 04:11:44;;;;;;;;;9.00;9.00;;;;;12.70;77.25;102474.19;2055150;27;2748174;-78
2024/01/26 04:12:56;;;;;;;;;8.00;8.00;;;;;12.71;76.94;102480.34;2060130;27;2487751;-77
2024/01/26 04:14:07;;;;;;;;;10.00;10.00;;;;;12.71;77.05;102480.34;2049764;27;1840991;-77
2024/01/26 04:15:21;;;;;;;;;7.83;7.83;;;;;12.73;76.90;102485.59;2062495;27;2746466;-77
2024/01/26 04:16:31;;;;;;;;;5.33;5.33;;;;;12.73;77.07;102489.09;2011192;27;3457477;-77
2024/01/26 04:17:42;;;;;;;;;9.00;9.00;;;;;12.74;76.79;102484.72;2049593;27;2739848;-77
2024/01/26 04:18:53;;;;;;;;;6.00;6.00;;;;;12.73;76.99;102489.09;2052337;27;2738152;-77
2024/01/26 04:20:05;;;;;;;;;10.00;10.00;;;;;12.73;76.89;102486.47;2059854;27;2772112;-77
2024/01/26 04:21:19;;;;;;;;;7.83;7.83;;;;;12.74;77.11;102480.28;2069656;27;2739828;-77
2024/01/26 04:22:29;;;;;;;;;7.67;7.67;;;;;12.74;76.99;102482.06;2019176;27;2738914;-77
2024/01/26 04:23:40;;;;;;;;;7.33;7.33;;;;;12.74;76.75;102479.44;2054997;27;2739881;-77
2024/01/26 04:24:52;;;;;;;;;8.75;8.75;;;;;12.75;77.00;102489.06;2069149;27;2725261;-77
2024/01/26 04:26:05;;;;;;;;;9.00;9.00;;;;;12.74;77.12;102488.19;2039858;27;2746086;-77
2024/01/26 04:27:18;;;;;;;;;8.17;8.17;;;;;12.74;77.51;102485.56;2063808;27;2732006;-77
2024/01/26 04:28:31;;;;;;;;;7.67;7.33;;;;;12.76;77.11;102499.63;2045485;27;2735766;-77
2024/01/26 04:29:42;;;;;;;;;7.00;7.00;;;;;12.76;76.92;102496.97;2018582;27;2735686;-77
2024/01/26 04:30:53;;;;;;;;;7.00;7.00;;;;;12.77;76.58;102505.75;2046550;27;3457517;-77
2024/01/26 04:32:04;;;;;;;;;9.00;8.00;;;;;12.76;76.92;102496.09;2052363;27;2737768;-77
2024/01/26 04:33:15;;;;;;;;;9.00;9.00;;;;;12.77;76.86;102492.56;2043103;27;2741927;-77
2024/01/26 04:34:25;;;;;;;;;11.00;10.67;;;;;12.77;76.81;102482.00;2050651;27;3499170;-78
2024/01/26 04:35:36;;;;;;;;;8.00;8.00;;;;;12.77;76.98;102487.28;2059127;27;2746102;-77
2024/01/26 04:36:47;;;;;;;;;7.67;7.67;;;;;12.76;76.78;102489.06;2057134;27;2740855;-77
2024/01/26 04:37:58;;;;;;;;;8.00;8.00;;;;;12.76;76.95;102494.34;2054278;27;2734226;-77
2024/01/26 04:39:11;;;;;;;;;6.33;6.33;;;;;12.76;76.87;102491.69;2058439;27;2736830;-77
2024/01/26 04:40:22;;;;;;;;;9.00;8.00;;;;;12.77;76.88;102495.19;2033571;27;3462743;-77
2024/01/26 04:41:33;;;;;;;;;8.50;8.50;;;;;12.78;76.76;102496.94;2060875;27;2728437;-77
2024/01/26 04:42:44;;;;;;;;;8.00;8.00;;;;;12.78;77.11;102491.66;2020623;27;2479460;-77
2024/01/26 04:43:55;;;;;;;;;8.00;7.67;;;;;12.78;76.95;102491.66;2075092;27;1822167;-77
2024/01/26 04:45:06;;;;;;;;;7.00;7.00;;;;;12.79;76.89;102491.63;2009958;27;2734652;-78
2024/01/26 04:46:17;;;;;;;;;9.00;8.25;;;;;12.78;76.58;102491.66;2061302;27;2747177;-78
2024/01/26 04:47:31;;;;;;;;;8.00;8.00;;;;;12.78;76.53;102497.81;2059538;27;2740914;-77
2024/01/26 04:48:41;;;;;;;;;7.00;7.00;;;;;12.79;76.68;102498.72;2012767;27;2741260;-77
2024/01/26 04:49:52;;;;;;;;;8.00;8.00;;;;;12.77;76.96;102490.78;2061557;27;2746102;-77
2024/01/26 04:51:03;;;;;;;;;5.00;5.00;;;;;12.77;76.79;102489.91;2044757;27;3457524;-77
2024/01/26 04:52:15;;;;;;;;;7.00;7.00;;;;;12.77;76.72;102490.78;2060275;27;2740214;-77
2024/01/26 04:53:25;;;;;;;;;5.33;5.33;;;;;12.77;76.62;102490.78;2019648;27;2742958;-77
2024/01/26 04:54:36;;;;;;;;;8.33;8.33;;;;;12.77;76.93;102490.78;2061556;27;2746211;-77
2024/01/26 04:55:47;;;;;;;;;6.67;6.67;;;;;12.77;76.98;102496.06;2068308;27;1816921;-77
2024/01/26 04:56:59;;;;;;;;;7.00;7.00;;;;;12.77;76.80;102496.06;2045420;27;2740921;-77
2024/01/26 04:58:12;;;;;;;;;8.00;8.00;;;;;12.78;76.67;102492.56;2069989;27;2737801;-77
2024/01/26 04:59:23;;;;;;;;;5.00;5.00;;;;;12.77;77.02;102488.16;2033791;27;2739848;-77
2024/01/26 05:00:34;;;;;;;;;7.00;7.00;;;;;12.78;76.94;102503.09;2061029;27;2735680;-77
2024/01/26 05:01:47;;;;;;;;;9.17;9.17;;;;;12.78;76.66;102494.31;2045330;27;2739860;-77
2024/01/26 05:02:58;;;;;;;;;6.00;6.00;;;;;12.78;76.87;102496.94;2034158;27;1810712;-77
2024/01/26 05:04:09;;;;;;;;;6.33;6.33;;;;;12.79;76.67;102494.28;2042459;27;2740906;-77
2024/01/26 05:05:20;;;;;;;;;6.33;6.33;;;;;12.78;76.86;102486.41;2064664;27;1816367;-77
2024/01/26 05:06:30;;;;;;;;;6.33;6.33;;;;;12.79;76.83;102490.78;2026305;27;2739875;-77
2024/01/26 05:07:42;;;;;;;;;8.67;8.67;;;;;12.79;77.02;102488.16;2051257;27;2739849;-77
2024/01/26 05:08:55;;;;;;;;;7.67;7.67;;;;;12.76;77.00;102481.16;2039670;27;2722133;-77
2024/01/26 05:10:06;;;;;;;;;6.67;6.67;;;;;12.78;76.65;102489.91;2010695;27;2742962;-77
2024/01/26 05:11:18;;;;;;;;;7.00;7.00;;;;;12.78;76.92;102487.28;2036381;27;2745073;-77
2024/01/26 05:12:29;;;;;;;;;6.00;6.00;;;;;12.79;76.89;102488.16;2043712;27;2734708;-77
2024/01/26 05:13:40;;;;;;;;;8.67;8.67;;;;;12.78;76.69;102483.75;2033151;27;3463868;-77
2024/01/26 05:14:51;;;;;;;;;6.00;6.00;;;;;12.76;77.03;102483.78;2060634;27;2736711;-77
2024/01/26 05:16:01;;;;;;;;;5.00;5.00;;;;;12.79;77.06;102477.59;2019282;27;2745075;-77
2024/01/26 05:17:13;;;;;;;;;7.25;6.75;;;;;12.78;76.68;102484.63;2068848;27;2739848;-77
2024/01/26 05:18:28;;;;;;;;;8.17;8.17;;;;;12.78;76.87;102476.72;2068773;27;2734655;-77
2024/01/26 05:19:38;;;;;;;;;6.33;6.33;;;;;12.78;76.71;102484.63;2034033;27;2738948;-77
2024/01/26 05:20:49;;;;;;;;;6.00;6.00;;;;;12.79;76.98;102482.88;2060840;27;2740903;-77
2024/01/26 05:22:03;;;;;;;;;5.50;5.50;;;;;12.80;76.87;102489.88;2043509;27;2733626;-77
2024/01/26 05:23:13;;;;;;;;;6.67;6.67;;;;;12.81;76.85;102481.09;2065289;27;1829449;-77